Time;durP1;ratioP1;P1;durP2;ratioP2;P2;SDS_P1;SDS_P2;PMS_P1;PMS_P2;Temp;Humidity;BMP_temperature;BMP_pressure;BME280_temperature;BME280_humidity;BME280_pressure;Samples;Min_cycle;Max_cycle;Signal;HPM_P1;HPM_P2
2021/01/09 00:01:25;;;;;;;101.22;41.60;;;-1.20;99.90;;;;;;4974849;28;20022;-81
2021/01/09 00:03:50;;;;;;;97.65;43.40;;;-1.20;99.90;;;;;;4974723;28;20383;-81
2021/01/09 00:06:16;;;;;;;101.03;42.92;;;-1.30;99.90;;;;;;4975911;28;20023;-82
2021/01/09 00:08:42;;;;;;;104.55;43.40;;;-1.20;99.90;;;;;;4976044;28;20034;-81
2021/01/09 00:11:07;;;;;;;99.05;44.30;;;-1.20;99.90;;;;;;4976015;28;20098;-81
2021/01/09 00:13:33;;;;;;;92.35;40.30;;;-1.30;99.90;;;;;;4974572;28;20033;-81
2021/01/09 00:15:59;;;;;;;99.88;42.13;;;-1.30;99.90;;;;;;4974543;28;20023;-81
2021/01/09 00:18:24;;;;;;;94.65;42.42;;;-1.30;99.90;;;;;;4975639;28;20026;-81
2021/01/09 00:20:50;;;;;;;105.90;40.17;;;-1.30;99.90;;;;;;4975705;28;20477;-81
2021/01/09 00:23:16;;;;;;;100.25;43.67;;;-1.30;99.90;;;;;;4975623;28;20033;-81
2021/01/09 00:25:41;;;;;;;92.10;40.67;;;-1.30;99.90;;;;;;4990590;28;20489;-81
2021/01/09 00:28:07;;;;;;;94.20;39.42;;;-1.30;99.90;;;;;;4975541;28;20027;-82
2021/01/09 00:30:33;;;;;;;96.35;40.55;;;-1.30;99.90;;;;;;4974340;28;20035;-81
2021/01/09 00:32:58;;;;;;;92.38;39.88;;;-1.40;99.90;;;;;;4990224;28;20097;-81
2021/01/09 00:35:24;;;;;;;97.80;39.17;;;-1.30;99.90;;;;;;4975331;28;20030;-81
2021/01/09 00:37:50;;;;;;;88.63;36.53;;;-1.30;99.90;;;;;;4975362;28;20149;-82
2021/01/09 00:40:16;;;;;;;88.07;38.13;;;-1.30;99.90;;;;;;4974109;28;20023;-82
2021/01/09 00:42:42;;;;;;;87.20;38.15;;;-1.30;99.90;;;;;;4975286;28;20497;-81
2021/01/09 00:45:09;;;;;;;95.65;40.40;;;-1.30;99.90;;;;;;4973984;28;20023;-82
2021/01/09 00:47:35;;;;;;;97.97;40.85;;;-1.30;99.90;;;;;;4975118;28;20034;-81
2021/01/09 00:50:01;;;;;;;86.25;36.42;;;-1.30;99.90;;;;;;4973816;28;20480;-81
2021/01/09 00:52:27;;;;;;;88.72;35.78;;;-1.30;99.90;;;;;;4973888;28;20041;-81
2021/01/09 00:54:52;;;;;;;80.80;36.05;;;-1.30;99.90;;;;;;4973796;28;20030;-81
2021/01/09 00:57:18;;;;;;;82.72;35.78;;;-1.30;99.90;;;;;;4989905;28;20033;-81
2021/01/09 00:59:44;;;;;;;75.45;35.03;;;-1.30;99.90;;;;;;4989851;28;20030;-81
2021/01/09 01:02:09;;;;;;;89.35;34.65;;;-1.30;99.90;;;;;;4973683;28;20015;-81
2021/01/09 01:04:35;;;;;;;83.18;35.70;;;-1.30;99.90;;;;;;4989898;28;20134;-82
2021/01/09 01:07:01;;;;;;;88.47;35.35;;;-1.30;99.90;;;;;;4989691;28;20520;-82
2021/01/09 01:09:26;;;;;;;77.75;33.75;;;-1.30;99.90;;;;;;4972401;28;20042;-82
2021/01/09 01:11:52;;;;;;;82.68;37.88;;;-1.30;99.90;;;;;;4973493;28;20066;-82
2021/01/09 01:14:18;;;;;;;93.28;36.78;;;-1.30;99.90;;;;;;4974662;28;20065;-82
2021/01/09 01:16:43;;;;;;;84.45;37.33;;;-1.30;99.90;;;;;;4974724;28;20134;-82
2021/01/09 01:19:11;;;;;;;77.72;35.35;;;-1.30;99.90;;;;;;4973356;28;20031;-82
2021/01/09 01:21:37;;;;;;;77.75;36.30;;;-1.30;99.90;;;;;;4974743;28;20023;-82
2021/01/09 01:24:03;;;;;;;81.38;34.40;;;-1.30;99.90;;;;;;4974529;28;20037;-82
2021/01/09 01:26:29;;;;;;;84.88;37.67;;;-1.30;99.90;;;;;;4974481;28;20015;-82
2021/01/09 01:28:54;;;;;;;81.40;35.20;;;-1.30;99.90;;;;;;4973113;28;20496;-82
2021/01/09 01:31:23;;;;;;;83.13;34.90;;;-1.30;99.90;;;;;;4974469;28;20026;-82
2021/01/09 01:33:49;;;;;;;77.25;35.10;;;-1.30;99.90;;;;;;4972650;28;20110;-83
2021/01/09 01:36:14;;;;;;;81.32;32.42;;;-1.30;99.90;;;;;;4987208;28;20505;-83
2021/01/09 01:38:40;;;;;;;78.97;36.45;;;-1.30;99.90;;;;;;4972328;28;20033;-83
2021/01/09 01:41:07;;;;;;;73.57;35.88;;;-1.30;99.90;;;;;;4972258;28;20027;-82
2021/01/09 01:43:33;;;;;;;81.57;34.13;;;-1.20;99.90;;;;;;4987168;28;20023;-83
2021/01/09 01:46:02;;;;;;;79.93;35.28;;;-1.20;99.90;;;;;;4970814;28;20026;-82
2021/01/09 01:48:28;;;;;;;84.15;36.45;;;-1.30;99.90;;;;;;4973411;28;20038;-82
2021/01/09 01:50:54;;;;;;;81.28;34.90;;;-1.30;99.90;;;;;;4973002;28;20434;-82
2021/01/09 01:53:20;;;;;;;77.68;33.20;;;-1.20;99.90;;;;;;4989095;28;20031;-83
2021/01/09 01:55:46;;;;;;;76.93;34.28;;;-1.20;99.90;;;;;;4974209;28;20030;-82
2021/01/09 01:58:12;;;;;;;84.55;35.38;;;-1.20;99.90;;;;;;4988940;28;20019;-82
2021/01/09 02:00:45;;;;;;;75.93;31.58;;;-1.20;99.90;;;;;;4974181;28;20061;-82
2021/01/09 02:03:11;;;;;;;81.68;36.53;;;-1.20;99.90;;;;;;4974106;28;20431;-82
2021/01/09 02:06:00;;;;;;;81.63;36.00;;;-1.20;99.90;;;;;;4972875;28;20025;-82
2021/01/09 02:08:35;;;;;;;78.40;35.65;;;-1.20;99.90;;;;;;4974088;28;20502;-81
2021/01/09 02:11:03;;;;;;;74.50;30.50;;;-1.20;99.90;;;;;;4974018;28;20094;-82
2021/01/09 02:13:50;;;;;;;77.45;33.13;;;-1.20;99.90;;;;;;4972703;28;20015;-82
2021/01/09 02:16:16;;;;;;;75.68;35.10;;;-1.30;99.90;;;;;;4972786;28;20023;-82
2021/01/09 02:18:43;;;;;;;82.63;34.22;;;-1.30;99.90;;;;;;4988820;28;20022;-82
2021/01/09 02:21:34;;;;;;;76.45;35.33;;;-1.20;99.90;;;;;;4975400;28;20117;-82
2021/01/09 02:24:00;;;;;;;76.57;31.98;;;-1.30;99.90;;;;;;4977882;28;20042;-82
2021/01/09 02:26:25;;;;;;;78.00;35.05;;;-1.30;99.90;;;;;;4977771;28;20022;-81
2021/01/09 02:28:51;;;;;;;78.38;33.72;;;-1.30;99.90;;;;;;4976411;28;20400;-82
2021/01/09 02:31:21;;;;;;;79.05;34.45;;;-1.30;99.90;;;;;;4992678;28;20396;-82
2021/01/09 02:33:49;;;;;;;88.60;37.03;;;-1.30;99.90;;;;;;4992588;28;20118;-82
2021/01/09 02:36:15;;;;;;;92.70;34.50;;;-1.30;99.90;;;;;;4977546;28;20042;-82
2021/01/09 02:38:43;;;;;;;82.35;34.47;;;-1.30;99.90;;;;;;4977587;28;20031;-81
2021/01/09 02:41:11;;;;;;;81.03;37.20;;;-1.30;99.90;;;;;;4976270;28;20031;-82
2021/01/09 02:43:37;;;;;;;74.70;34.97;;;-1.20;99.90;;;;;;4976158;28;20114;-82
2021/01/09 02:46:03;;;;;;;79.28;37.88;;;-1.30;99.90;;;;;;4977487;28;20113;-82
2021/01/09 02:48:28;;;;;;;80.50;35.55;;;-1.30;99.90;;;;;;4977310;28;20046;-82
2021/01/09 02:50:54;;;;;;;84.85;36.13;;;-1.20;99.90;;;;;;4977410;28;20019;-82
2021/01/09 02:53:19;;;;;;;88.00;37.15;;;-1.20;99.90;;;;;;4975976;28;20500;-82
2021/01/09 02:55:45;;;;;;;79.97;34.08;;;-1.20;99.90;;;;;;4992049;28;20023;-82
2021/01/09 02:58:11;;;;;;;73.25;33.35;;;-1.20;99.90;;;;;;4976932;28;20038;-81
2021/01/09 03:00:36;;;;;;;66.32;30.63;;;-1.20;99.90;;;;;;4975983;28;20472;-81
2021/01/09 03:03:02;;;;;;;74.00;33.53;;;-1.20;99.90;;;;;;4992070;28;20271;-82
2021/01/09 03:05:27;;;;;;;74.45;34.00;;;-1.20;99.90;;;;;;4977157;28;20069;-81
2021/01/09 03:07:53;;;;;;;78.25;34.28;;;-1.20;99.90;;;;;;4975267;28;20174;-81
2021/01/09 03:10:19;;;;;;;74.00;33.67;;;-1.20;99.90;;;;;;4976947;28;20027;-82
2021/01/09 03:12:44;;;;;;;69.03;31.13;;;-1.20;99.90;;;;;;4975643;28;20050;-82
2021/01/09 03:15:10;;;;;;;65.97;31.35;;;-1.30;99.90;;;;;;4991883;28;20030;-82
2021/01/09 03:17:36;;;;;;;70.72;32.33;;;-1.20;99.90;;;;;;4991818;28;20477;-81
2021/01/09 03:20:02;;;;;;;71.60;30.70;;;-1.30;99.90;;;;;;4976846;28;20047;-82
2021/01/09 03:22:28;;;;;;;72.90;31.15;;;-1.20;99.90;;;;;;4975546;28;20484;-82
2021/01/09 03:24:53;;;;;;;72.22;29.27;;;-1.20;99.90;;;;;;4991642;28;20033;-82
2021/01/09 03:27:19;;;;;;;69.10;30.42;;;-1.20;99.90;;;;;;4976710;28;20919;-81
2021/01/09 03:29:45;;;;;;;63.13;28.80;;;-1.30;99.90;;;;;;4976540;28;20043;-81
2021/01/09 03:32:10;;;;;;;72.28;32.75;;;-1.30;99.90;;;;;;4974672;28;20154;-82
2021/01/09 03:34:36;;;;;;;70.15;30.45;;;-1.30;99.90;;;;;;4976577;28;20097;-81
2021/01/09 03:37:02;;;;;;;71.22;29.63;;;-1.20;99.90;;;;;;4988227;28;20488;-82
2021/01/09 03:39:27;;;;;;;62.90;28.00;;;-1.30;99.90;;;;;;4994936;28;20168;-82
2021/01/09 03:41:53;;;;;;;62.38;29.23;;;-1.30;99.90;;;;;;4995957;28;20030;-82
2021/01/09 03:44:18;;;;;;;63.35;28.17;;;-1.20;99.90;;;;;;4995791;28;20555;-81
2021/01/09 03:46:44;;;;;;;58.95;30.15;;;-1.20;99.90;;;;;;4995863;28;20122;-81
2021/01/09 03:49:10;;;;;;;59.90;27.70;;;-1.20;99.90;;;;;;4995627;28;20042;-82
2021/01/09 03:51:35;;;;;;;61.80;27.92;;;-1.30;99.90;;;;;;4995794;28;20026;-82
2021/01/09 03:54:01;;;;;;;61.55;28.38;;;-1.20;99.90;;;;;;4994377;28;20022;-82
2021/01/09 03:56:27;;;;;;;68.35;31.17;;;-1.30;99.90;;;;;;4995627;28;20496;-82
2021/01/09 03:58:52;;;;;;;65.20;28.17;;;-1.20;99.90;;;;;;4994201;28;20018;-82
2021/01/09 04:01:18;;;;;;;59.85;27.45;;;-1.20;99.90;;;;;;4994277;28;20045;-82
2021/01/09 04:03:43;;;;;;;61.00;28.10;;;-1.30;99.90;;;;;;4995424;28;20049;-82
2021/01/09 04:06:09;;;;;;;70.97;29.90;;;-1.20;99.90;;;;;;4994212;28;20026;-81
2021/01/09 04:08:34;;;;;;;69.85;29.67;;;-1.30;99.90;;;;;;4993008;28;20542;-81
2021/01/09 04:11:00;;;;;;;72.18;29.95;;;-1.30;99.90;;;;;;4994845;28;20073;-82
2021/01/09 04:13:26;;;;;;;67.70;28.63;;;-1.30;99.90;;;;;;4991909;28;20061;-81
2021/01/09 04:15:51;;;;;;;57.13;27.50;;;-1.30;99.90;;;;;;4995109;28;20027;-81
2021/01/09 04:18:17;;;;;;;66.78;28.48;;;-1.30;99.90;;;;;;4985360;28;20054;-81
2021/01/09 04:20:43;;;;;;;68.35;31.42;;;-1.20;99.90;;;;;;4975793;28;20026;-81
2021/01/09 04:23:08;;;;;;;65.32;28.88;;;-1.30;99.90;;;;;;4975686;28;20035;-81
2021/01/09 04:25:34;;;;;;;61.15;29.33;;;-1.30;99.90;;;;;;4974488;28;20094;-82
2021/01/09 04:28:00;;;;;;;64.95;28.42;;;-1.30;99.90;;;;;;4974284;28;20081;-82
2021/01/09 04:30:26;;;;;;;58.72;28.30;;;-1.30;99.90;;;;;;4975648;28;20023;-82
2021/01/09 04:32:51;;;;;;;66.47;27.77;;;-1.30;99.90;;;;;;4975459;28;20019;-82
2021/01/09 04:35:17;;;;;;;66.72;28.02;;;-1.30;99.90;;;;;;4975493;28;20037;-82
2021/01/09 04:37:43;;;;;;;64.00;30.35;;;-1.30;99.90;;;;;;4975144;28;20388;-82
2021/01/09 04:40:09;;;;;;;62.10;27.90;;;-1.30;99.90;;;;;;4975424;28;20033;-82
2021/01/09 04:42:35;;;;;;;60.58;27.67;;;-1.30;99.90;;;;;;4976915;28;20049;-82
2021/01/09 04:45:01;;;;;;;63.90;31.02;;;-1.30;99.90;;;;;;4993041;28;20412;-81
2021/01/09 04:47:30;;;;;;;63.03;27.60;;;-1.30;99.90;;;;;;4994714;28;20539;-82
2021/01/09 04:49:56;;;;;;;66.18;28.23;;;-1.30;99.90;;;;;;4993243;28;20030;-81
2021/01/09 04:52:22;;;;;;;62.00;28.45;;;-1.30;99.90;;;;;;4994536;28;20030;-82
2021/01/09 04:54:49;;;;;;;64.75;30.98;;;-1.30;99.90;;;;;;4994438;28;20030;-81
2021/01/09 04:57:15;;;;;;;65.93;30.77;;;-1.30;99.90;;;;;;4994502;28;20022;-82
2021/01/09 04:59:42;;;;;;;71.07;30.92;;;-1.30;99.90;;;;;;4993414;28;20515;-81
2021/01/09 05:02:11;;;;;;;71.15;30.10;;;-1.30;99.90;;;;;;4993912;28;20027;-82
2021/01/09 05:04:42;;;;;;;64.28;33.45;;;-1.30;99.90;;;;;;4994114;28;20022;-82
2021/01/09 05:07:07;;;;;;;66.72;30.77;;;-1.30;99.90;;;;;;4993411;28;20041;-81
2021/01/09 05:09:33;;;;;;;64.68;30.60;;;-1.30;99.90;;;;;;4992935;28;20496;-81
2021/01/09 05:11:59;;;;;;;71.90;32.08;;;-1.30;99.90;;;;;;4993022;28;20026;-81
2021/01/09 05:14:27;;;;;;;75.00;32.45;;;-1.30;99.90;;;;;;4994178;28;20034;-81
2021/01/09 05:16:57;;;;;;;66.90;30.58;;;-1.30;99.90;;;;;;4992860;28;20030;-82
2021/01/09 05:19:28;;;;;;;71.50;31.10;;;-1.30;99.90;;;;;;4994060;28;20030;-82
2021/01/09 05:21:55;;;;;;;68.88;33.03;;;-1.30;99.90;;;;;;4992627;28;20491;-81
2021/01/09 05:24:21;;;;;;;65.95;31.05;;;-1.30;99.90;;;;;;4992715;28;20034;-82
2021/01/09 05:26:48;;;;;;;79.63;34.72;;;-1.30;99.90;;;;;;4992161;28;20111;-81
2021/01/09 05:29:16;;;;;;;67.30;32.15;;;-1.30;99.90;;;;;;4991775;28;20042;-82
2021/01/09 05:31:43;;;;;;;77.55;32.80;;;-1.30;99.90;;;;;;4992110;28;20018;-82
2021/01/09 05:34:09;;;;;;;69.40;32.53;;;-1.30;99.90;;;;;;4992451;28;20030;-82
2021/01/09 05:36:34;;;;;;;71.85;32.42;;;-1.30;99.90;;;;;;4991532;28;20077;-82
2021/01/09 05:39:01;;;;;;;67.63;33.05;;;-1.30;99.90;;;;;;4992657;28;20387;-82
2021/01/09 05:41:27;;;;;;;73.95;33.85;;;-1.30;99.90;;;;;;4991305;28;20024;-82
2021/01/09 05:44:00;;;;;;;79.13;34.92;;;-1.30;99.90;;;;;;4992470;28;20030;-81
2021/01/09 05:46:27;;;;;;;77.05;34.33;;;-1.30;99.90;;;;;;4990681;28;20100;-82
2021/01/09 05:48:53;;;;;;;76.90;33.92;;;-1.20;99.90;;;;;;4976034;28;20117;-81
2021/01/09 05:51:19;;;;;;;98.15;44.67;;;-1.30;99.90;;;;;;4974249;28;20027;-82
2021/01/09 05:53:46;;;;;;;96.43;39.92;;;-1.30;99.90;;;;;;4972644;28;20101;-82
2021/01/09 05:56:14;;;;;;;110.18;48.70;;;-1.20;99.90;;;;;;4972527;28;20519;-82
2021/01/09 05:58:40;;;;;;;88.85;35.58;;;-1.30;99.90;;;;;;4974106;28;20046;-82
2021/01/09 06:01:11;;;;;;;80.80;37.95;;;-1.30;99.90;;;;;;4974148;28;20034;-82
2021/01/09 06:04:02;;;;;;;85.80;38.42;;;-1.30;99.90;;;;;;4974009;28;20511;-82
2021/01/09 06:06:50;;;;;;;86.75;37.03;;;-1.30;99.90;;;;;;4970326;28;20049;-82
2021/01/09 06:09:27;;;;;;;90.07;38.55;;;-1.30;99.90;;;;;;4972510;28;20053;-82
2021/01/09 06:11:55;;;;;;;94.93;40.95;;;-1.30;99.90;;;;;;4972840;28;20027;-82
2021/01/09 06:14:25;;;;;;;93.35;40.25;;;-1.20;99.90;;;;;;4972675;28;20041;-82
2021/01/09 06:16:52;;;;;;;83.28;37.33;;;-1.20;99.90;;;;;;4974043;28;20023;-82
2021/01/09 06:19:22;;;;;;;102.22;43.78;;;-1.20;99.90;;;;;;4978907;28;20019;-82
2021/01/09 06:21:50;;;;;;;85.28;35.30;;;-1.20;99.90;;;;;;4982774;28;20035;-82
2021/01/09 06:24:17;;;;;;;75.40;33.33;;;-1.20;99.90;;;;;;4973168;28;20019;-82
2021/01/09 06:26:43;;;;;;;72.47;31.45;;;-1.20;99.90;;;;;;4971636;28;20499;-81
2021/01/09 06:29:19;;;;;;;77.57;34.47;;;-1.20;99.90;;;;;;4971414;28;20110;-82
2021/01/09 06:31:52;;;;;;;69.72;30.33;;;-1.20;99.90;;;;;;4972196;28;20019;-82
2021/01/09 06:34:25;;;;;;;128.02;49.63;;;-1.20;99.90;;;;;;4971129;28;20026;-81
2021/01/09 06:37:02;;;;;;;75.50;33.20;;;-1.20;99.90;;;;;;4972078;28;20490;-81
2021/01/09 06:39:33;;;;;;;74.50;29.85;;;-1.20;99.90;;;;;;4972100;28;20122;-81
2021/01/09 06:42:00;;;;;;;69.70;27.77;;;-1.10;99.90;;;;;;4989482;28;20018;-81
2021/01/09 06:44:27;;;;;;;61.17;27.80;;;-1.10;99.90;;;;;;4972864;28;20038;-81
2021/01/09 06:46:54;;;;;;;74.68;30.67;;;-1.20;99.90;;;;;;4971423;28;20015;-82
2021/01/09 06:49:21;;;;;;;69.25;31.85;;;-1.10;99.90;;;;;;4972590;28;20043;-82
2021/01/09 06:52:07;;;;;;;71.55;29.98;;;-1.10;99.90;;;;;;4973222;28;20019;-81
2021/01/09 06:54:38;;;;;;;66.18;30.70;;;-1.10;99.90;;;;;;4970063;28;20019;-81
2021/01/09 06:57:10;;;;;;;67.03;30.45;;;-1.10;99.90;;;;;;4971932;28;20035;-82
2021/01/09 06:59:37;;;;;;;74.70;30.27;;;-1.10;99.90;;;;;;4971791;28;20470;-82
2021/01/09 07:02:27;;;;;;;67.82;30.40;;;-1.10;99.90;;;;;;4971850;28;20027;-81
2021/01/09 07:05:06;;;;;;;83.93;35.50;;;-1.10;99.90;;;;;;4969994;28;20099;-82
2021/01/09 07:07:36;;;;;;;80.20;30.73;;;-1.10;99.90;;;;;;4969835;28;20031;-81
2021/01/09 07:10:06;;;;;;;75.40;32.47;;;-1.10;99.90;;;;;;4976605;28;20031;-81
2021/01/09 07:12:33;;;;;;;92.05;37.83;;;-1.00;99.90;;;;;;4973256;28;20022;-81
2021/01/09 07:15:05;;;;;;;82.40;35.65;;;-1.00;99.90;;;;;;4976455;28;20029;-81
2021/01/09 07:17:38;;;;;;;81.35;38.90;;;-1.00;99.90;;;;;;4974307;28;20015;-81
2021/01/09 07:20:07;;;;;;;87.28;37.88;;;-1.00;99.90;;;;;;4978210;28;20455;-82
2021/01/09 07:22:36;;;;;;;81.72;35.08;;;-1.00;99.90;;;;;;4976948;28;20022;-81
2021/01/09 07:25:06;;;;;;;75.15;35.67;;;-1.00;99.90;;;;;;4975439;28;20395;-82
2021/01/09 07:27:44;;;;;;;81.60;34.33;;;-1.00;99.90;;;;;;4973856;28;20027;-82
2021/01/09 07:30:13;;;;;;;80.55;32.72;;;-1.00;99.90;;;;;;4976070;28;20035;-82
2021/01/09 07:32:50;;;;;;;82.13;37.70;;;-0.90;99.90;;;;;;4975107;28;20034;-81
2021/01/09 07:35:25;;;;;;;78.35;36.85;;;-0.80;99.90;;;;;;4975236;28;20023;-82
2021/01/09 07:38:02;;;;;;;75.15;34.55;;;-0.70;99.90;;;;;;4996476;28;20026;-82
2021/01/09 07:40:39;;;;;;;78.78;34.33;;;-0.60;99.90;;;;;;4984022;28;20027;-81
2021/01/09 07:43:37;;;;;;;67.72;32.70;;;-0.70;99.90;;;;;;4985802;28;20468;-82
2021/01/09 07:46:24;;;;;;;82.43;36.22;;;-0.60;99.90;;;;;;4995650;28;20182;-82
2021/01/09 07:48:51;;;;;;;74.75;33.67;;;-0.60;99.90;;;;;;4975597;28;20035;-81
2021/01/09 07:51:18;;;;;;;73.80;35.80;;;-0.60;99.90;;;;;;4991087;28;20050;-82
2021/01/09 07:53:48;;;;;;;76.95;35.00;;;-0.60;99.90;;;;;;4976116;28;20027;-82
2021/01/09 07:56:37;;;;;;;79.88;36.30;;;-0.60;99.90;;;;;;4974624;28;20088;-82
2021/01/09 07:59:06;;;;;;;84.35;37.80;;;-0.60;99.90;;;;;;4973666;28;20026;-81
2021/01/09 08:01:42;;;;;;;82.82;35.75;;;-0.60;99.90;;;;;;4974999;28;20023;-81
2021/01/09 08:04:10;;;;;;;90.38;40.20;;;-0.70;99.90;;;;;;4974563;28;20125;-81
2021/01/09 08:06:40;;;;;;;74.60;35.15;;;-0.60;99.90;;;;;;4977386;28;20465;-81
2021/01/09 08:09:06;;;;;;;84.43;36.42;;;-0.60;99.90;;;;;;4975255;28;20037;-81
2021/01/09 08:11:39;;;;;;;80.85;35.30;;;-0.70;99.90;;;;;;4977711;28;20027;-81
2021/01/09 08:14:05;;;;;;;;;;;-0.60;99.90;;;;;;4978240;28;20027;-82
2021/01/09 08:16:30;;;;;;;88.25;37.42;;;-0.60;99.90;;;;;;4981385;28;19914;-81
2021/01/09 08:19:16;;;;;;;86.07;36.38;;;-0.70;99.90;;;;;;4994562;28;20377;-81
2021/01/09 08:21:42;;;;;;;93.50;36.92;;;-0.70;99.90;;;;;;4992938;28;20019;-81
2021/01/09 08:24:08;;;;;;;102.75;43.47;;;-0.70;99.90;;;;;;4985930;28;20054;-81
2021/01/09 08:26:34;;;;;;;86.35;41.03;;;-0.70;99.90;;;;;;4981418;28;20492;-82
2021/01/09 08:29:00;;;;;;;101.93;42.40;;;-0.70;99.90;;;;;;4973585;28;20065;-81
2021/01/09 08:31:26;;;;;;;91.00;40.65;;;-0.60;99.90;;;;;;4974787;28;20511;-81
2021/01/09 08:33:52;;;;;;;81.30;38.78;;;-0.60;99.90;;;;;;4981833;28;20387;-81
2021/01/09 08:36:20;;;;;;;77.53;37.03;;;-0.50;99.90;;;;;;4984758;28;20026;-81
2021/01/09 08:38:48;;;;;;;84.32;39.88;;;-0.50;99.90;;;;;;4975697;28;20038;-82
2021/01/09 08:41:14;;;;;;;80.10;37.67;;;-0.50;99.90;;;;;;4987772;28;20033;-82
2021/01/09 08:43:40;;;;;;;90.10;41.72;;;-0.50;99.90;;;;;;4991265;28;20030;-82
2021/01/09 08:46:05;;;;;;;79.25;38.00;;;-0.60;99.90;;;;;;4983263;28;20022;-82
2021/01/09 08:48:35;;;;;;;86.65;41.80;;;-0.50;99.90;;;;;;4992887;28;20034;-82
2021/01/09 08:51:12;;;;;;;95.65;40.67;;;-0.50;99.90;;;;;;4993074;28;20018;-83
2021/01/09 08:53:58;;;;;;;118.57;52.83;;;-0.50;99.90;;;;;;4988362;28;20030;-81
2021/01/09 08:56:28;;;;;;;91.95;43.35;;;-0.40;99.90;;;;;;4973999;28;20085;-82
2021/01/09 08:58:55;;;;;;;85.13;38.15;;;-0.40;99.90;;;;;;4990590;28;20033;-82
2021/01/09 09:01:47;;;;;;;76.20;39.15;;;-0.30;99.90;;;;;;4981798;28;20507;-82
2021/01/09 09:04:16;;;;;;;87.80;41.92;;;-0.30;99.90;;;;;;4989909;28;20022;-82
2021/01/09 09:06:43;;;;;;;99.65;44.30;;;-0.30;99.90;;;;;;4982881;28;20030;-81
2021/01/09 09:09:15;;;;;;;102.57;46.40;;;-0.30;99.90;;;;;;4986729;28;20030;-81
2021/01/09 09:11:41;;;;;;;126.75;53.33;;;-0.20;99.90;;;;;;4978899;28;20022;-82
2021/01/09 09:14:08;;;;;;;104.97;49.78;;;-0.10;99.90;;;;;;4984210;28;20050;-81
2021/01/09 09:16:35;;;;;;;103.28;45.75;;;0.00;99.90;;;;;;4979678;28;20128;-82
2021/01/09 09:19:15;;;;;;;86.22;40.25;;;0.00;99.90;;;;;;4982478;28;20480;-82
2021/01/09 09:21:47;;;;;;;85.50;39.75;;;0.10;99.90;;;;;;4970181;28;20392;-82
2021/01/09 09:24:15;;;;;;;80.75;39.53;;;0.10;99.90;;;;;;4977259;28;20029;-82
2021/01/09 09:26:44;;;;;;;91.03;40.60;;;0.20;99.90;;;;;;4981139;28;20481;-82
2021/01/09 09:29:13;;;;;;;89.80;43.15;;;0.20;99.90;;;;;;4979525;28;20132;-82
2021/01/09 09:31:41;;;;;;;93.82;44.33;;;0.20;99.90;;;;;;4975816;28;20014;-81
2021/01/09 09:34:11;;;;;;;89.70;39.75;;;0.20;99.90;;;;;;4983928;28;20483;-82
2021/01/09 09:36:39;;;;;;;92.50;40.03;;;0.20;99.90;;;;;;4982150;28;20046;-82
2021/01/09 09:39:16;;;;;;;91.20;39.63;;;0.30;99.90;;;;;;4978980;28;20167;-82
2021/01/09 09:42:03;;;;;;;77.22;40.47;;;0.20;99.90;;;;;;4973177;28;20050;-82
2021/01/09 09:44:43;;;;;;;90.00;42.88;;;0.20;99.90;;;;;;4969653;28;20051;-82
2021/01/09 09:47:26;;;;;;;103.53;45.25;;;0.20;99.90;;;;;;4969931;28;20035;-82
2021/01/09 09:49:52;;;;;;;118.60;49.25;;;0.20;99.90;;;;;;4977884;28;20050;-82
2021/01/09 09:52:19;;;;;;;87.63;40.97;;;0.20;99.90;;;;;;4985676;28;20484;-82
2021/01/09 09:54:46;;;;;;;75.57;34.17;;;0.20;99.90;;;;;;4997296;28;20022;-82
2021/01/09 09:57:23;;;;;;;75.88;36.63;;;0.00;99.90;;;;;;4975595;28;20053;-82
2021/01/09 10:00:11;;;;;;;68.30;33.65;;;0.00;99.90;;;;;;4986786;28;20027;-82
2021/01/09 10:02:37;;;;;;;69.05;33.20;;;0.00;99.90;;;;;;4981538;28;20015;-82
2021/01/09 10:05:13;;;;;;;71.47;35.78;;;0.00;99.90;;;;;;4976889;28;20071;-82
2021/01/09 10:07:39;;;;;;;72.80;33.67;;;0.00;99.90;;;;;;4981860;28;20030;-83
2021/01/09 10:10:34;;;;;;;74.97;33.70;;;-0.10;99.90;;;;;;4988647;28;20381;-82
2021/01/09 10:13:00;;;;;;;87.55;36.13;;;-0.20;99.90;;;;;;4970187;28;20041;-82
2021/01/09 10:15:26;;;;;;;85.07;35.22;;;-0.20;99.90;;;;;;4982983;28;20101;-83
2021/01/09 10:17:52;;;;;;;76.78;35.80;;;-0.10;99.90;;;;;;4978871;28;20519;-82
2021/01/09 10:20:18;;;;;;;78.95;34.90;;;-0.10;99.90;;;;;;4971966;28;20034;-82
2021/01/09 10:22:43;;;;;;;75.75;32.85;;;-0.10;99.90;;;;;;4987756;28;20066;-82
2021/01/09 10:25:09;;;;;;;75.13;34.50;;;-0.10;99.90;;;;;;4971990;28;20065;-82
2021/01/09 10:27:35;;;;;;;81.32;37.10;;;-0.10;99.90;;;;;;4974885;28;20035;-82
2021/01/09 10:30:01;;;;;;;75.85;36.45;;;-0.10;99.90;;;;;;4970913;28;20093;-82
2021/01/09 10:32:28;;;;;;;79.57;33.42;;;-0.10;99.90;;;;;;4970854;28;20023;-82
2021/01/09 10:34:54;;;;;;;73.65;34.58;;;-0.10;99.90;;;;;;4972575;28;20065;-82
2021/01/09 10:37:19;;;;;;;86.15;35.53;;;-0.10;99.90;;;;;;4972974;28;20055;-82
2021/01/09 10:39:45;;;;;;;76.03;34.03;;;-0.10;99.90;;;;;;4972323;28;20019;-82
2021/01/09 10:42:14;;;;;;;84.50;34.88;;;-0.10;99.90;;;;;;4973097;28;20035;-82
2021/01/09 10:44:39;;;;;;;75.10;32.55;;;-0.10;99.90;;;;;;4977077;28;20492;-82
2021/01/09 10:47:05;;;;;;;81.22;34.03;;;-0.10;99.90;;;;;;4992121;28;20166;-82
2021/01/09 10:49:39;;;;;;;67.70;28.95;;;-0.10;99.90;;;;;;4977006;28;20489;-82
2021/01/09 10:52:05;;;;;;;87.35;37.42;;;-0.10;99.90;;;;;;4976700;28;20026;-81
2021/01/09 10:54:30;;;;;;;76.32;33.50;;;-0.20;99.90;;;;;;4977945;28;20487;-82
2021/01/09 10:56:56;;;;;;;74.10;33.42;;;-0.20;99.90;;;;;;4987903;28;20022;-82
2021/01/09 10:59:21;;;;;;;99.43;43.90;;;-0.20;99.90;;;;;;4994515;28;20029;-82
2021/01/09 11:01:47;;;;;;;131.57;55.08;;;-0.20;99.90;;;;;;4996655;28;20022;-82
2021/01/09 11:04:15;;;;;;;194.10;79.53;;;-0.10;99.90;;;;;;4985310;28;20035;-83
2021/01/09 11:06:41;;;;;;;158.57;63.38;;;-0.10;99.90;;;;;;4974563;28;20089;-81
2021/01/09 11:09:06;;;;;;;132.55;49.92;;;0.00;99.90;;;;;;4977153;28;20480;-81
2021/01/09 11:11:32;;;;;;;117.03;48.55;;;0.00;99.90;;;;;;4987297;28;20114;-82
2021/01/09 11:13:58;;;;;;;148.05;59.78;;;0.00;99.90;;;;;;4994747;28;20084;-81
2021/01/09 11:16:28;;;;;;;130.05;52.78;;;0.00;99.90;;;;;;4995006;28;20034;-81
2021/01/09 11:18:56;;;;;;;246.88;97.32;;;-0.10;99.90;;;;;;4995206;28;20109;-81
2021/01/09 11:21:22;;;;;;;117.80;49.47;;;-0.10;99.90;;;;;;4987717;28;20022;-81
2021/01/09 11:23:48;;;;;;;127.57;50.20;;;-0.10;99.90;;;;;;4991305;28;20031;-81
2021/01/09 11:26:24;;;;;;;116.68;46.95;;;-0.10;99.90;;;;;;4975255;28;20045;-81
2021/01/09 11:28:51;;;;;;;124.18;50.08;;;0.00;99.90;;;;;;4979173;28;20511;-81
2021/01/09 11:31:17;;;;;;;93.28;36.60;;;0.00;99.90;;;;;;4982199;28;20026;-81
2021/01/09 11:33:42;;;;;;;118.72;46.65;;;0.10;99.90;;;;;;4977301;28;20456;-81
2021/01/09 11:36:12;;;;;;;118.47;47.88;;;0.20;99.90;;;;;;4980174;28;20026;-81
2021/01/09 11:38:38;;;;;;;85.18;35.85;;;0.20;99.90;;;;;;4994654;28;20033;-81
2021/01/09 11:41:03;;;;;;;109.93;40.60;;;0.30;99.90;;;;;;4994549;28;20042;-81
2021/01/09 11:43:32;;;;;;;82.72;35.22;;;0.30;99.90;;;;;;4994526;28;20035;-81
2021/01/09 11:45:57;;;;;;;131.65;48.42;;;0.40;99.90;;;;;;4989247;28;20025;-81
2021/01/09 11:48:24;;;;;;;107.78;42.38;;;0.40;99.90;;;;;;4981584;28;20059;-81
2021/01/09 11:50:50;;;;;;;103.75;42.83;;;0.40;99.90;;;;;;4978435;28;20018;-81
2021/01/09 11:53:16;;;;;;;78.20;33.78;;;0.30;99.90;;;;;;4973857;28;20027;-81
2021/01/09 11:55:42;;;;;;;98.10;40.05;;;0.30;99.90;;;;;;4974910;28;20457;-81
2021/01/09 11:58:07;;;;;;;95.43;39.65;;;0.20;99.90;;;;;;4974819;28;20117;-81
2021/01/09 12:00:33;;;;;;;86.45;34.13;;;0.20;99.90;;;;;;4975904;28;20106;-81
2021/01/09 12:02:59;;;;;;;73.40;31.77;;;0.20;99.90;;;;;;4974890;28;20015;-81
2021/01/09 12:05:24;;;;;;;89.75;36.60;;;0.10;99.90;;;;;;4976155;28;20066;-81
2021/01/09 12:07:50;;;;;;;74.32;36.53;;;0.10;99.90;;;;;;4990197;28;20534;-81
2021/01/09 12:10:16;;;;;;;61.80;24.55;;;0.10;99.90;;;;;;4990954;28;20019;-81
2021/01/09 12:12:41;;;;;;;74.47;32.25;;;0.00;99.90;;;;;;4974876;28;20081;-80
2021/01/09 12:15:09;;;;;;;63.58;27.48;;;0.00;99.90;;;;;;4965185;28;20046;-81
2021/01/09 12:17:35;;;;;;;72.45;29.52;;;0.00;99.90;;;;;;4970196;28;20023;-81
2021/01/09 12:20:01;;;;;;;77.10;32.75;;;0.00;99.90;;;;;;4984043;28;20026;-81
2021/01/09 12:22:27;;;;;;;67.50;27.40;;;-0.10;99.90;;;;;;4975182;28;20110;-81
2021/01/09 12:24:53;;;;;;;90.72;36.97;;;-0.20;99.90;;;;;;4975654;28;20066;-81
2021/01/09 12:27:18;;;;;;;122.00;53.45;;;-0.20;99.90;;;;;;4975145;28;20046;-81
2021/01/09 12:29:44;;;;;;;107.85;45.13;;;-0.20;99.90;;;;;;4990035;28;20518;-80
2021/01/09 12:32:10;;;;;;;82.25;32.10;;;-0.20;99.90;;;;;;4975545;28;20038;-81
2021/01/09 12:34:36;;;;;;;91.88;34.45;;;-0.20;99.90;;;;;;4990434;28;20027;-81